createdAt,value
2023-05-13T00:02:00.001Z,64.43
2023-05-13T00:04:29.875Z,64.45
2023-05-13T00:06:59.657Z,65.05
2023-05-13T00:09:29.780Z,65.63
2023-05-13T00:11:59.764Z,65.91
2023-05-13T00:14:29.664Z,65.66
2023-05-13T00:17:04.969Z,66.17
2023-05-13T00:19:34.919Z,65.34
2023-05-13T00:22:04.762Z,65.61
2023-05-13T00:24:34.600Z,65.70
2023-05-13T00:27:04.478Z,65.75
2023-05-13T00:29:34.416Z,65.73
2023-05-13T00:32:07.444Z,65.28
2023-05-13T00:34:38.362Z,65.02
2023-05-13T00:37:10.352Z,65.29
2023-05-13T00:39:40.208Z,65.34
2023-05-13T00:42:11.562Z,65.63
2023-05-13T00:44:41.673Z,65.58
2023-05-13T00:47:14.761Z,65.70
2023-05-13T00:49:44.596Z,66.24
2023-05-13T00:52:14.891Z,65.88
2023-05-13T00:54:44.845Z,65.90
2023-05-13T00:57:14.604Z,65.56
2023-05-13T00:59:44.592Z,65.87
2023-05-13T01:02:21.362Z,66.00
2023-05-13T01:04:56.434Z,65.74
2023-05-13T01:07:30.287Z,66.12
2023-05-13T01:10:06.668Z,66.16
2023-05-13T01:12:39.801Z,66.44
2023-05-13T01:15:12.117Z,65.88
2023-05-13T01:17:51.165Z,65.83
2023-05-13T01:20:25.050Z,66.01
2023-05-13T01:22:57.741Z,66.22
2023-05-13T01:25:27.836Z,66.15
2023-05-13T01:27:57.814Z,66.00
2023-05-13T01:30:28.069Z,66.08
2023-05-13T01:32:58.071Z,66.56
2023-05-13T01:35:28.422Z,66.55
2023-05-13T01:38:01.016Z,66.52
2023-05-13T01:40:32.831Z,66.18
2023-05-13T01:43:08.789Z,66.55
2023-05-13T01:45:40.047Z,66.58
2023-05-13T01:48:10.125Z,66.09
2023-05-13T01:50:50.930Z,66.32
2023-05-13T01:53:23.586Z,66.30
2023-05-13T01:55:55.712Z,66.14
2023-05-13T01:58:25.600Z,66.22
2023-05-13T02:00:55.469Z,66.43
2023-05-13T02:03:25.437Z,66.90
2023-05-13T02:05:55.648Z,66.63
2023-05-13T02:08:28.314Z,66.84
2023-05-13T02:10:58.931Z,66.82
2023-05-13T02:13:31.195Z,67.31
2023-05-13T02:16:01.134Z,67.44
2023-05-13T02:18:31.622Z,67.90
2023-05-13T02:21:01.466Z,68.12
2023-05-13T02:23:33.890Z,68.05
2023-05-13T02:26:04.894Z,67.80
2023-05-13T02:28:34.870Z,68.17
2023-05-13T02:31:04.747Z,68.26
2023-05-13T02:33:34.654Z,68.20
2023-05-13T02:36:04.645Z,68.22
2023-05-13T02:38:37.178Z,68.42
2023-05-13T02:41:08.757Z,68.70
2023-05-13T02:43:38.598Z,68.30
2023-05-13T02:46:09.841Z,68.67
2023-05-13T02:48:39.950Z,69.05
2023-05-13T02:51:09.906Z,69.22
2023-05-13T02:53:42.785Z,69.15
2023-05-13T02:56:16.416Z,69.45
2023-05-13T02:58:46.449Z,69.99
2023-05-13T03:01:16.523Z,69.84
2023-05-13T03:03:46.590Z,70.14
2023-05-13T03:06:16.711Z,70.39
2023-05-13T03:08:49.141Z,70.72
2023-05-13T03:11:18.973Z,70.88
2023-05-13T03:13:48.905Z,71.09
2023-05-13T03:16:18.913Z,71.06
2023-05-13T03:18:49.157Z,71.38
2023-05-13T03:21:20.075Z,71.38
2023-05-13T03:23:52.716Z,71.55
2023-05-13T03:26:23.854Z,71.50
2023-05-13T03:28:53.884Z,71.98
2023-05-13T03:31:24.151Z,71.98
2023-05-13T03:33:54.182Z,71.96
2023-05-13T03:36:24.084Z,71.96
2023-05-13T03:38:56.834Z,71.92
2023-05-13T03:41:28.388Z,71.73
2023-05-13T03:44:01.213Z,72.57
2023-05-13T03:46:31.121Z,72.37
2023-05-13T03:49:01.090Z,72.18
2023-05-13T03:51:33.194Z,72.40
2023-05-13T03:54:12.773Z,72.15
2023-05-13T03:56:43.306Z,72.23
2023-05-13T03:59:13.112Z,71.64
2023-05-13T04:01:43.106Z,71.39
2023-05-13T04:04:12.977Z,71.03
2023-05-13T04:06:42.788Z,71.72
2023-05-13T04:09:15.351Z,71.66
2023-05-13T04:11:45.567Z,72.20
2023-05-13T04:14:15.606Z,72.63
2023-05-13T04:16:46.569Z,72.64
2023-05-13T04:19:16.511Z,72.37
2023-05-13T04:21:46.285Z,72.60
2023-05-13T04:24:18.654Z,73.00
2023-05-13T04:26:48.565Z,72.94
2023-05-13T04:29:19.618Z,72.95
2023-05-13T04:31:49.885Z,72.83
2023-05-13T04:34:19.974Z,72.86
2023-05-13T04:36:50.649Z,73.08
2023-05-13T04:39:23.180Z,72.64
2023-05-13T04:41:53.140Z,72.67
2023-05-13T04:44:23.105Z,72.88
2023-05-13T04:46:52.928Z,72.88
2023-05-13T04:49:22.765Z,72.80
2023-05-13T04:51:53.114Z,72.21
2023-05-13T04:54:26.402Z,72.27
2023-05-13T04:56:56.365Z,72.37
2023-05-13T04:59:26.326Z,72.67
2023-05-13T05:01:56.279Z,72.68
2023-05-13T05:04:27.402Z,72.83
2023-05-13T05:06:57.783Z,73.22
2023-05-13T05:09:30.300Z,73.07
2023-05-13T05:12:00.453Z,73.00
2023-05-13T05:14:33.218Z,73.36
2023-05-13T05:17:03.180Z,73.09
2023-05-13T05:19:33.121Z,73.21
2023-05-13T05:22:03.278Z,72.63
2023-05-13T05:24:37.050Z,72.96
2023-05-13T05:27:07.428Z,72.56
2023-05-13T05:29:38.577Z,72.72
2023-05-13T05:32:09.570Z,73.72
2023-05-13T05:34:39.505Z,72.45
2023-05-13T05:37:09.544Z,72.25
2023-05-13T05:39:43.868Z,71.74
2023-05-13T05:42:15.226Z,71.14
2023-05-13T05:44:45.623Z,70.40
2023-05-13T05:47:15.651Z,70.57
2023-05-13T05:49:45.779Z,70.85
2023-05-13T05:52:16.562Z,70.11
2023-05-13T05:54:50.192Z,69.40
2023-05-13T05:57:20.631Z,68.83
2023-05-13T05:59:51.653Z,68.32
2023-05-13T06:02:22.029Z,68.53
2023-05-13T06:04:54.764Z,67.20
2023-05-13T06:07:27.169Z,67.49
2023-05-13T06:10:00.090Z,66.93
2023-05-13T06:12:30.867Z,67.33
2023-05-13T06:15:01.227Z,65.20
2023-05-13T06:17:31.411Z,64.88
2023-05-13T06:20:01.728Z,65.45
2023-05-13T06:22:31.879Z,65.55
2023-05-13T06:25:04.652Z,64.60
2023-05-13T06:27:34.761Z,64.37
2023-05-13T06:30:04.920Z,64.94
2023-05-13T06:32:35.106Z,64.79
2023-05-13T06:35:05.361Z,64.57
2023-05-13T06:37:35.920Z,64.69
2023-05-13T06:40:10.294Z,64.60
2023-05-13T06:42:44.410Z,63.50
2023-05-13T06:45:26.186Z,63.17
2023-05-13T06:47:56.767Z,63.35
2023-05-13T06:50:26.749Z,63.20
2023-05-13T06:52:57.518Z,61.67
2023-05-13T06:55:29.911Z,62.76
2023-05-13T06:58:00.082Z,63.68
2023-05-13T07:00:30.220Z,63.56
2023-05-13T07:03:00.486Z,64.40
2023-05-13T07:05:30.743Z,62.86
2023-05-13T07:08:00.821Z,62.93
2023-05-13T07:10:33.432Z,63.22
2023-05-13T07:13:03.741Z,63.36
2023-05-13T07:15:33.853Z,63.08
2023-05-13T07:18:04.033Z,62.49
2023-05-13T07:20:34.425Z,63.66
2023-05-13T07:23:04.402Z,62.51
2023-05-13T07:25:37.098Z,61.07
2023-05-13T07:28:07.465Z,60.27
2023-05-13T07:30:37.515Z,60.77
2023-05-13T07:33:07.798Z,62.81
2023-05-13T07:35:37.891Z,57.96
2023-05-13T07:38:07.873Z,57.97
2023-05-13T07:40:40.877Z,58.37
2023-05-13T07:43:10.941Z,58.73
2023-05-13T07:45:41.544Z,57.87
2023-05-13T07:48:11.838Z,56.52
2023-05-13T07:50:42.066Z,57.40
2023-05-13T07:53:12.425Z,55.77
2023-05-13T07:55:45.155Z,55.60
2023-05-13T07:58:15.273Z,53.89
2023-05-13T08:00:45.464Z,53.61
2023-05-13T08:03:16.053Z,51.98
2023-05-13T08:05:48.385Z,54.02
2023-05-13T08:08:18.421Z,53.71
2023-05-13T08:10:51.203Z,52.71
2023-05-13T08:13:22.154Z,52.53
2023-05-13T08:15:52.869Z,50.73
2023-05-13T08:18:23.022Z,49.21
2023-05-13T08:20:53.268Z,46.50
2023-05-13T08:23:30.783Z,47.73
2023-05-13T08:26:13.532Z,47.72
2023-05-13T08:28:43.894Z,46.67
2023-05-13T08:31:14.625Z,44.83
2023-05-13T08:33:46.358Z,45.00
2023-05-13T08:36:17.610Z,44.84
2023-05-13T08:38:47.674Z,42.29
2023-05-13T08:41:22.046Z,41.97
2023-05-13T08:43:53.321Z,41.98
2023-05-13T08:46:25.701Z,40.23
2023-05-13T08:48:58.884Z,41.86
2023-05-13T08:51:29.096Z,39.86
2023-05-13T08:53:59.535Z,42.02
2023-05-13T08:56:31.942Z,40.17
2023-05-13T08:59:02.212Z,38.91
2023-05-13T09:01:33.221Z,39.99
2023-05-13T09:04:05.745Z,38.00
2023-05-13T09:06:35.788Z,37.65
2023-05-13T09:09:06.173Z,37.46
2023-05-13T09:11:42.632Z,39.42
2023-05-13T09:14:14.649Z,39.71
2023-05-13T09:16:45.540Z,37.47
2023-05-13T09:19:15.625Z,36.13
2023-05-13T09:21:47.304Z,36.62
2023-05-13T09:24:19.149Z,35.32
2023-05-13T09:26:52.647Z,36.34
2023-05-13T09:29:26.700Z,34.91
2023-05-13T09:31:58.931Z,37.20
2023-05-13T09:34:30.216Z,37.18
2023-05-13T09:37:04.712Z,36.99
2023-05-13T09:39:36.471Z,37.75
2023-05-13T09:42:10.889Z,38.35
2023-05-13T09:44:41.483Z,38.76
2023-05-13T09:47:14.490Z,38.14
2023-05-13T09:49:44.682Z,36.92
2023-05-13T09:52:14.627Z,37.85
2023-05-13T09:54:44.532Z,38.09
2023-05-13T09:57:18.451Z,38.27
2023-05-13T09:59:48.558Z,35.35
2023-05-13T10:02:19.018Z,36.98
2023-05-13T10:04:49.161Z,33.72
2023-05-13T10:07:24.672Z,35.17
2023-05-13T10:09:57.268Z,35.11
2023-05-13T10:12:30.807Z,35.31
2023-05-13T10:15:01.701Z,34.05
2023-05-13T10:17:35.329Z,34.23
2023-05-13T10:20:05.807Z,35.00
2023-05-13T10:22:36.693Z,34.73
2023-05-13T10:25:07.564Z,34.47
2023-05-13T10:27:41.163Z,33.61
2023-05-13T10:30:12.566Z,35.95
2023-05-13T10:32:42.807Z,33.79
2023-05-13T10:35:16.528Z,33.89
2023-05-13T10:37:59.904Z,34.98
2023-05-13T10:40:37.963Z,34.85
2023-05-13T10:43:20.190Z,33.68
2023-05-13T10:45:51.109Z,32.61
2023-05-13T10:48:22.151Z,34.37
2023-05-13T10:50:57.054Z,34.46
2023-05-13T10:53:28.870Z,34.76
2023-05-13T10:56:00.362Z,33.13
2023-05-13T10:58:38.226Z,35.21
2023-05-13T11:01:21.885Z,31.91
2023-05-13T11:03:56.192Z,32.98
2023-05-13T11:06:28.158Z,33.09
2023-05-13T11:08:58.103Z,34.46
2023-05-13T11:11:34.023Z,33.34
2023-05-13T11:14:19.840Z,34.33
2023-05-13T11:16:53.098Z,32.85
2023-05-13T11:19:24.719Z,32.28
2023-05-13T11:21:57.474Z,31.46
2023-05-13T11:24:27.896Z,32.23
2023-05-13T11:26:59.820Z,33.71
2023-05-13T11:29:37.535Z,32.99
2023-05-13T11:32:09.281Z,33.45
2023-05-13T11:34:39.404Z,31.05
2023-05-13T11:37:13.683Z,33.46
2023-05-13T11:39:44.260Z,31.81
2023-05-13T11:42:15.372Z,32.07
2023-05-13T11:44:51.248Z,33.79
2023-05-13T11:47:29.546Z,34.76
2023-05-13T11:49:59.876Z,35.19
2023-05-13T11:52:29.787Z,34.41
2023-05-13T11:55:01.275Z,36.36
2023-05-13T11:57:32.948Z,32.26
2023-05-13T12:00:07.715Z,33.64
2023-05-13T12:02:40.808Z,34.67
2023-05-13T12:05:12.404Z,34.18
2023-05-13T12:07:42.448Z,34.13
2023-05-13T12:10:12.584Z,31.56
2023-05-13T12:12:43.401Z,29.42
2023-05-13T12:15:19.111Z,32.98
2023-05-13T12:17:49.683Z,29.82
2023-05-13T12:20:21.104Z,30.98
2023-05-13T12:22:59.423Z,29.11
2023-05-13T12:25:44.027Z,30.03
2023-05-13T12:28:17.077Z,29.38
2023-05-13T12:30:53.732Z,29.94
2023-05-13T12:33:23.851Z,29.83
2023-05-13T12:35:55.140Z,31.43
2023-05-13T12:38:26.039Z,32.68
2023-05-13T12:40:56.444Z,33.31
2023-05-13T12:43:26.317Z,31.18
2023-05-13T12:45:58.694Z,32.25
2023-05-13T12:48:28.864Z,30.85
2023-05-13T12:51:01.283Z,31.17
2023-05-13T12:53:31.998Z,30.71
2023-05-13T12:56:02.116Z,30.93
2023-05-13T12:58:31.938Z,31.16
2023-05-13T13:01:04.371Z,31.21
2023-05-13T13:03:34.745Z,33.50
2023-05-13T13:06:04.651Z,33.07
2023-05-13T13:08:34.523Z,30.26
2023-05-13T13:11:04.513Z,29.99
2023-05-13T13:13:35.195Z,30.04
2023-05-13T13:16:09.906Z,29.89
2023-05-13T13:18:39.781Z,28.24
2023-05-13T13:21:09.635Z,29.97
2023-05-13T13:23:39.825Z,28.80
2023-05-13T13:26:09.552Z,29.09
2023-05-13T13:28:39.387Z,29.26
2023-05-13T13:31:12.196Z,29.09
2023-05-13T13:33:42.070Z,29.03
2023-05-13T13:36:11.901Z,28.12
2023-05-13T13:38:41.816Z,29.00
2023-05-13T13:41:11.569Z,29.06
2023-05-13T13:43:41.633Z,28.32
2023-05-13T13:46:14.077Z,30.31
2023-05-13T13:48:43.845Z,28.73
2023-05-13T13:51:13.686Z,27.71
2023-05-13T13:53:43.398Z,27.80
2023-05-13T13:56:13.203Z,27.80
2023-05-13T13:58:43.402Z,27.63
2023-05-13T14:01:15.983Z,28.73
2023-05-13T14:03:45.931Z,27.08
2023-05-13T14:06:15.858Z,26.09
2023-05-13T14:08:45.812Z,29.09
2023-05-13T14:11:16.841Z,25.52
2023-05-13T14:13:46.651Z,26.22
2023-05-13T14:16:19.138Z,26.21
2023-05-13T14:18:49.101Z,24.78
2023-05-13T14:21:19.215Z,26.52
2023-05-13T14:23:49.231Z,25.39
2023-05-13T14:26:19.271Z,28.04
2023-05-13T14:28:49.118Z,28.55
2023-05-13T14:31:21.637Z,26.51
2023-05-13T14:33:51.589Z,26.76
2023-05-13T14:36:22.711Z,25.07
2023-05-13T14:38:52.605Z,26.81
2023-05-13T14:41:23.268Z,28.29
2023-05-13T14:43:53.032Z,28.27
2023-05-13T14:46:25.665Z,27.20
2023-05-13T14:48:55.583Z,26.95
2023-05-13T14:51:25.585Z,29.13
2023-05-13T14:53:55.534Z,28.96
2023-05-13T14:56:25.373Z,26.92
2023-05-13T14:58:55.420Z,27.29
2023-05-13T15:01:28.168Z,28.40
2023-05-13T15:03:59.818Z,28.38
2023-05-13T15:06:29.801Z,28.06
2023-05-13T15:08:59.624Z,26.99
2023-05-13T15:11:30.116Z,27.30
2023-05-13T15:14:00.060Z,27.23
2023-05-13T15:16:32.632Z,26.17
2023-05-13T15:19:02.900Z,26.65
2023-05-13T15:21:32.705Z,28.86
2023-05-13T15:24:02.480Z,28.07
2023-05-13T15:26:32.268Z,27.52
2023-05-13T15:29:02.098Z,29.79
2023-05-13T15:31:34.726Z,26.57
2023-05-13T15:34:05.144Z,27.82
2023-05-13T15:36:36.717Z,27.07
2023-05-13T15:39:06.811Z,27.96
2023-05-13T15:41:37.044Z,27.98
2023-05-13T15:44:08.165Z,27.03
2023-05-13T15:46:40.985Z,28.59
2023-05-13T18:00:05.087Z,31.31
2023-05-13T18:02:36.380Z,32.34
2023-05-13T18:05:06.567Z,31.99
2023-05-13T18:07:36.542Z,30.85
2023-05-13T18:10:07.014Z,31.29
2023-05-13T18:12:36.815Z,30.85
2023-05-13T18:15:10.320Z,31.44
2023-05-13T18:17:40.602Z,31.01
2023-05-13T18:20:11.982Z,31.01
2023-05-13T18:22:42.051Z,31.51
2023-05-13T18:25:13.489Z,31.46
2023-05-13T18:27:43.540Z,31.63
2023-05-13T18:30:18.848Z,32.13
2023-05-13T18:32:49.007Z,32.32
2023-05-13T18:35:21.675Z,32.08
2023-05-13T18:37:51.777Z,32.77
2023-05-13T18:40:21.985Z,33.99
2023-05-13T18:42:52.252Z,34.05
2023-05-13T18:45:24.824Z,36.66
2023-05-13T18:47:55.179Z,36.73
2023-05-13T18:50:25.188Z,36.32
2023-05-13T18:52:55.217Z,38.18
2023-05-13T18:55:25.275Z,37.03
2023-05-13T18:57:55.266Z,37.41
2023-05-13T19:00:28.124Z,38.31
2023-05-13T19:02:58.306Z,39.65
2023-05-13T19:05:28.528Z,39.27
2023-05-13T19:08:00.704Z,40.18
2023-05-13T19:10:30.685Z,41.58
2023-05-13T19:13:00.814Z,40.67
2023-05-13T19:15:33.571Z,39.19
2023-05-13T19:18:03.596Z,38.98
2023-05-13T19:20:33.733Z,38.73
2023-05-13T19:23:03.776Z,38.74
2023-05-13T19:25:33.850Z,37.93
2023-05-13T19:28:04.617Z,37.86
2023-05-13T19:30:37.380Z,39.40
2023-05-13T19:33:08.053Z,39.18
2023-05-13T19:35:38.766Z,38.67
2023-05-13T19:38:08.888Z,38.84
2023-05-13T19:40:38.929Z,39.96
2023-05-13T19:43:09.218Z,40.29
2023-05-13T19:45:42.220Z,40.80
2023-05-13T19:48:13.273Z,39.69
2023-05-13T19:50:43.526Z,38.91
2023-05-13T19:53:13.797Z,38.29
2023-05-13T19:55:43.941Z,38.80
2023-05-13T19:58:14.535Z,38.75
2023-05-13T20:00:46.802Z,40.45
2023-05-13T20:03:16.837Z,44.49
2023-05-13T20:05:46.926Z,45.83
2023-05-13T20:08:17.037Z,46.61
2023-05-13T20:10:47.024Z,47.74
2023-05-13T20:13:17.009Z,48.24
2023-05-13T20:15:49.618Z,45.85
2023-05-13T20:18:20.275Z,45.49
2023-05-13T20:20:50.624Z,45.59
2023-05-13T20:27:06.658Z,46.58
2023-05-13T20:29:38.116Z,46.98
2023-05-13T20:58:45.653Z,47.08
2023-05-13T21:01:21.539Z,48.37
2023-05-13T21:13:18.780Z,48.55
2023-05-13T21:15:51.034Z,48.85
2023-05-13T21:18:23.843Z,48.43
2023-05-13T21:20:53.856Z,49.18
2023-05-13T21:23:23.730Z,50.20
2023-05-13T21:25:53.644Z,50.50
2023-05-13T21:28:26.033Z,50.56
2023-05-13T21:30:56.212Z,50.94
2023-05-13T21:33:28.852Z,51.26
2023-05-13T21:35:59.294Z,50.94
2023-05-13T21:38:29.444Z,51.77
2023-05-13T21:40:59.675Z,52.22
2023-05-13T21:43:29.583Z,52.18
2023-05-13T21:45:59.551Z,52.17
2023-05-13T21:48:32.093Z,52.55
2023-05-13T21:51:02.136Z,53.51
2023-05-13T21:53:34.068Z,53.70
2023-05-13T21:56:04.144Z,52.63
2023-05-13T21:58:34.088Z,51.84
2023-05-13T22:01:04.222Z,52.55
2023-05-13T22:03:36.907Z,53.08
2023-05-13T22:06:07.077Z,53.65
2023-05-13T22:08:37.207Z,53.78
2023-05-13T22:11:07.581Z,53.69
2023-05-13T22:13:38.367Z,52.66
2023-05-13T22:16:08.883Z,52.65
2023-05-13T22:18:42.100Z,53.04
2023-05-13T22:21:12.373Z,53.65
2023-05-13T22:23:42.311Z,53.38
2023-05-13T22:26:12.259Z,53.07
2023-05-13T22:28:42.415Z,53.04
2023-05-13T22:31:12.591Z,53.28
2023-05-13T22:33:45.248Z,53.27
2023-05-13T22:36:15.272Z,53.65
2023-05-13T22:38:45.104Z,52.87
2023-05-13T22:41:15.224Z,53.19
2023-05-13T22:43:45.252Z,54.23
2023-05-13T22:46:15.292Z,53.62
2023-05-13T22:48:47.806Z,54.76
2023-05-13T22:51:17.763Z,54.41
2023-05-13T22:53:47.803Z,54.83
2023-05-13T22:56:17.737Z,54.93
2023-05-13T22:58:47.706Z,55.19
2023-05-13T23:01:17.818Z,55.15
2023-05-13T23:03:50.513Z,55.11
2023-05-13T23:06:20.615Z,55.02
2023-05-13T23:08:50.695Z,54.72
2023-05-13T23:11:21.642Z,54.92
2023-05-13T23:13:51.685Z,55.32
2023-05-13T23:16:21.795Z,55.37
2023-05-13T23:18:54.421Z,55.70
2023-05-13T23:21:24.473Z,56.00
2023-05-13T23:23:55.154Z,55.88
2023-05-13T23:26:25.059Z,56.48
2023-05-13T23:28:54.863Z,56.15
2023-05-13T23:31:24.945Z,56.56
2023-05-13T23:33:57.674Z,57.06
2023-05-13T23:36:27.550Z,57.40
2023-05-13T23:39:01.077Z,57.38
2023-05-13T23:41:35.092Z,58.21
2023-05-13T23:44:05.078Z,58.75
2023-05-13T23:46:35.021Z,58.76
2023-05-13T23:49:07.575Z,58.46
2023-05-13T23:51:37.495Z,58.49
2023-05-13T23:54:08.403Z,57.68
2023-05-13T23:56:38.488Z,57.60
2023-05-13T23:59:08.826Z,57.91
